Sierra Nevada Aquatic Research Lab (SNARL) Reserve, Santa Monica Mtns, California Weather observations

Data are for 10 minute period ending at time listed.
 Day   Time   Solar   Ave.   Ave.  Ave.  Vector  Max.   Baro.   Total    
  of    of     Rad.   Air    Rel.  Wind   Wind   Wind  Press.  Precip.   
Year   Day            Temp.  Hum.  Speed  Dir.   Gust                    
2014   (PST)  Kw/m2    F      %     mph   deg.    mph    mb.     in.     
-------------------------------------------------------------------------
 294   16:00   0.15   61.3    23    9.4   272    16.7   782.3    0.00 
 294   16:10   0.14   60.9    23    7.2   278    12.3   782.3    0.00 
 294   16:20   0.03   59.5    25    8.9   262    14.2   782.2    0.00 
 294   16:30   0.03   58.1    26    6.3   252    10.9   782.1    0.00 
 294   16:40   0.01   57.5    27    6.6   251    10.0   782.0    0.00 
 294   16:50   0.01   57.0    28    5.5   266     9.5   781.9    0.00 
 294   17:00   0.01   56.6    29    7.5   267    12.0   781.8    0.00 
 294   17:10   0.01   54.5    26    8.2   294    12.8   781.9    0.00 
 294   17:20   0.00   53.1    26    7.1   300    12.5   781.9    0.00 
 294   17:30   0.00   51.6    26    6.4   291    10.6   782.0    0.00 
 294   17:40   0.00   51.1    27    7.1   278    11.9   782.0    0.00 
 294   17:50   0.00   50.6    27    8.2   283    14.2   782.2    0.00 
 294   18:00   0.00   50.9    28    7.5   278    13.5   782.4    0.00 
 294   18:10   0.00   50.9    28    6.5   276    11.3   782.5    0.00 
 294   18:20   0.00   50.2    27    4.5   268    10.8   782.6    0.00 
 294   18:30   0.00   48.5    30    3.3    82     7.7   782.7    0.00 
 294   18:40   0.00   49.1    29    3.6    40     8.8   782.9    0.00 
 294   18:50   0.00   48.9    28    2.2   351     5.1   782.9    0.00 
 294   19:00   0.00   46.4    31    1.8   203     3.3   783.0    0.00 
 294   19:10   0.00   44.3    34    2.1    31     4.2   783.1    0.00 
 294   19:20   0.00   41.6    35    2.1   204     3.9   783.1    0.00 
 294   19:30   0.00   41.4    36    2.3   229     4.5   783.1    0.00 
 294   19:40   0.00   41.1    38    1.5   140     2.9   783.2    0.00 
 294   19:50   0.00   40.0    39    4.1   227     6.2   783.4    0.00 
 294   20:00   0.00   40.2    38    4.4   234     5.8   783.5    0.00 
 294   20:10   0.00   41.0    35    2.8   251     6.0   783.5    0.00 
 294   20:20   0.00   40.9    36    0.6   208     2.2   783.8    0.00 
 294   20:30   0.00   39.3    38    1.3   241     2.9   783.8    0.00 
 294   20:40   0.00   38.8    38    2.9   250     5.0   783.9    0.00 
 294   20:50   0.00   38.0    40    2.4   258     3.6   784.0    0.00 
 294   21:00   0.00   37.2    38    3.1   213     5.9   784.0    0.00 
 294   21:10   0.00   36.2    39    1.1   228     3.3   784.1    0.00 
 294   21:20   0.00   35.4    41    1.2   194     2.9   784.2    0.00 
 294   21:30   0.00   35.5    41    1.9   257     5.2   784.1    0.00 
 294   21:40   0.00   34.9    42    2.8   281     5.6   784.1    0.00 
 294   21:50   0.00   34.5    44    3.1   259     6.4   784.1    0.00 
 294   22:00   0.00   34.4    44    2.6   244     6.6   784.2    0.00 
 294   22:10   0.00   34.1    46    4.1   239     8.3   784.6    0.00 
 294   22:20   0.00   34.6    47    2.8   249     4.7   784.7    0.00 
 294   22:30   0.00   35.5    46    0.3   234     2.0   784.6    0.00 
 294   22:40   0.00   33.5    47    1.8   253     4.8   784.5    0.00 
 294   22:50   0.00   32.4    50    2.0   251     4.5   784.6    0.00 
 294   23:00   0.00   31.7    49    3.8   244     5.6   784.7    0.00 
 294   23:10   0.00   33.6    48    2.5   245     4.5   784.6    0.00 
 294   23:20   0.00   33.3    51    0.8   306     2.0   784.5    0.00 
 294   23:30   0.00   31.6    52    1.6   239     2.9   784.5    0.00 
 294   23:40   0.00   31.2    51    1.1   186     2.0   784.5    0.00 
 294   23:50   0.00   32.4    52    2.6   311     4.7   784.6    0.00 
 295    0:00   0.00   30.8    50    1.4    15     3.1   784.7    0.00 
 295    0:10   0.00   30.0    50    1.9   251     3.2   784.7    0.00 
 295    0:20   0.00   28.4    52    2.2   230     3.3   784.7    0.00 
 295    0:30   0.00   28.2    54    4.2   245     5.0   784.7    0.00 
 295    0:40   0.00   30.2    54    3.2   236     4.5   784.8    0.00 
 295    0:50   0.00   31.0    51    3.5   311     6.1   784.9    0.00 
 295    1:00   0.00   29.7    53    2.1   309     4.2   784.9    0.00 
 295    1:10   0.00   28.2    53    2.2   297     4.6   784.9    0.00 
 295    1:20   0.00   26.3    58    1.5   266     2.5   784.9    0.00 
 295    1:30   0.00   26.4    58    1.9   242     4.1   784.8    0.00 
 295    1:40   0.00   26.8    60    1.9   279     3.9   784.9    0.00 
 295    1:50   0.00   25.9    60    1.3   260     4.0   785.1    0.00 
 295    2:00   0.00   26.3    60    0.9   201     1.9   785.1    0.00 
 295    2:10   0.00   27.4    62    1.8   310     3.1   785.1    0.00 
 295    2:20   0.00   25.8    61    1.9   279     2.8   785.1    0.00 
 295    2:30   0.00   26.6    61    0.7   245     2.3   785.2    0.00 
 295    2:40   0.00   26.5    63    2.4   314     4.2   785.4    0.00 
 295    2:50   0.00   25.1    62    1.3   260     2.3   785.5    0.00 
 295    3:00   0.00   26.2    63    1.5   282     2.7   785.6    0.00 
 295    3:10   0.00   26.0    63    1.2   274     2.9   785.8    0.00 
 295    3:20   0.00   27.1    64    1.0   265     2.9   785.7    0.00 
 295    3:30   0.00   27.3    62    1.7   314     4.4   785.5    0.00 
 295    3:40   0.00   27.9    58    2.4    31     5.1   785.6    0.00 
 295    3:50   0.00   30.2    53    1.7   313     2.9   785.8    0.00 
 295    4:00   0.00   28.0    56    1.3   280     2.4   785.9    0.00 
 295    4:10   0.00   26.1    60    1.0   224     2.8   786.0    0.00 
 295    4:20   0.00   25.5    61    1.0   178     2.6   785.9    0.00 
 295    4:30   0.00   26.1    60    1.5   227     2.6   785.9    0.00 
 295    4:40   0.00   26.9    61    2.0   259     3.1   785.9    0.00 
 295    4:50   0.00   27.1    61    1.5   321     4.1   785.9    0.00 
 295    5:00   0.00   27.1    60    2.5   308     5.7   785.9    0.00 
 295    5:10   0.00   25.5    60    2.0   262     5.1   786.0    0.00 
 295    5:20   0.00   24.9    63    2.2   306     4.1   786.0    0.00 
 295    5:30   0.00   23.5    65    1.8   281     3.0   786.0    0.00 
 295    5:40   0.00   24.2    66    2.3   285     3.9   786.0    0.00 
 295    5:50   0.00   25.1    67    2.1   298     3.7   786.0    0.00 
 295    6:00   0.00   24.2    65    0.4   250     2.0   786.0    0.00 
 295    6:10   0.00   24.4    68    0.9   332     3.6   786.1    0.00 
 295    6:20   0.01   24.5    64    0.8   238     2.1   786.2    0.00 
 295    6:30   0.02   24.2    65    1.5   251     2.3   786.2    0.00 
 295    6:40   0.04   26.2    64    2.1   227     4.4   786.3    0.00 
 295    6:50   0.08   28.4    61    1.1   312     2.8   786.5    0.00 
 295    7:00   0.12   31.8    54    0.5   227     1.2   786.7    0.00 
 295    7:10   0.13   35.1    50    0.5    99     1.5   786.7    0.00 
 295    7:20   0.13   36.8    47    1.3   112     3.0   786.9    0.00 
 295    7:30   0.18   37.6    46    0.6   115     2.0   787.0    0.00 
 295    7:40   0.22   39.3    46    0.6   358     1.5   787.2    0.00 
 295    7:50   0.24   41.0    44    0.1   325     1.2   787.2    0.00 
 295    8:00   0.24   43.2    40    0.5    69     1.7   787.2    0.00 
 295    8:10   0.27   45.0    38    0.5     8     2.3   787.2    0.00 
 295    8:20   0.28   45.6    37    0.8    10     2.7   787.2    0.00 
 295    8:30   0.33   47.3    35    0.7   341     2.2   787.1    0.00 
 295    8:40   0.30   48.7    33    1.0   232     2.7   787.1    0.00 
 295    8:50   0.39   50.0    31    1.3   346     2.8   787.0    0.00 
 295    9:00   0.36   51.2    30    1.6    26     2.6   787.0    0.00 
 295    9:10   0.36   52.2    29    1.0    19     2.5   786.9    0.00 
 295    9:20   0.45   53.5    28    1.6    65     3.9   786.8    0.00 
 295    9:30   0.43   53.9    28    2.1    29     3.8   786.8    0.00 
 295    9:40   0.40   54.6    27    1.1   347     3.1   786.7    0.00 
 295    9:50   0.43   55.9    26    1.9    53     3.9   786.7    0.00 
 295   10:00   0.47   57.1    25    1.3    76     3.6   786.7    0.00 
 295   10:10   0.49   57.7    26    2.4    72     5.0   786.7    0.00 
 295   10:20   0.59   57.8    27    3.1    54     6.2   786.8    0.00 
 295   10:30   0.54   58.1    27    2.7    35     5.2   786.7    0.00 
 295   10:40   0.56   59.0    27    3.0    53     7.1   786.7    0.00 
 295   10:50   0.64   59.6    26    4.7    76     8.3   786.8    0.00 
 295   11:00   0.68   60.4    26    5.2    82     9.5   786.8    0.00 
 295   11:10   0.61   61.4    24    5.0    69     9.0   786.8    0.00 
 295   11:20   0.66   62.6    22    6.1    79    11.5   786.7    0.00 
 295   11:30   0.71   63.0    21    9.0    84    14.5   786.6    0.00 
 295   11:40   0.69   63.8    21    9.1    88    14.6   786.6    0.00 
 295   11:50   0.71   64.8    20    9.1    97    14.5   786.4    0.00 
 295   12:00   0.68   65.5    19   10.0    88    16.4   786.3    0.00 
 295   12:10   0.69   65.5    19    9.8    86    17.0   786.3    0.00 
 295   12:20   0.70   65.8    18   10.8    96    16.6   786.2    0.00 
 295   12:30   0.69   66.5    18    9.8    93    16.0   786.2    0.00 
 295   12:40   0.69   66.7    18    9.9    88    17.5   786.1    0.00 
 295   12:50   0.68   67.4    17   10.8    89    15.9   786.1    0.00 
 295   13:00   0.67   67.4    17   11.6    88    17.8   785.9    0.00 
 295   13:10   0.64   67.6    17   10.9    95    17.5   785.9    0.00 
 295   13:20   0.60   67.3    16   13.0   101    18.6   785.8    0.00 
 295   13:30   0.59   67.7    16   13.3    94    19.1   785.7    0.00 
 295   13:40   0.55   66.9    16   13.7    89    18.6   785.7    0.00 
 295   13:50   0.56   67.6    16   12.0    90    18.9   785.7    0.00 
 295   14:00   0.55   67.5    16   14.1    98    22.1   785.6    0.00 
 295   14:10   0.50   67.3    16   14.2    94    18.1   785.7    0.00 
 295   14:20   0.43   67.1    16   13.6    94    19.2   785.7    0.00 
 295   14:30   0.46   66.5    17   14.5    99    19.2   785.8    0.00 
 295   14:40   0.45   66.6    17   14.3    94    20.9   785.8    0.00 
 295   14:50   0.42   66.8    17   13.6    93    18.8   785.8    0.00 
 295   15:00   0.36   66.6    18   14.5    95    22.2   785.8    0.00 
 295   15:10   0.29   65.9    18   15.2   100    19.6   785.8    0.00 
 295   15:20   0.33   65.4    18   12.4    90    18.3   785.8    0.00 
 295   15:30   0.24   65.2    19   12.9    94    18.6   785.8    0.00 
 295   15:40   0.24   64.2    20   12.7    90    18.4   785.8    0.00 
 295   15:50   0.21   64.2    19   12.4    92    21.0   785.8    0.00 

Return to SNARL Reserve graphs page.


Western Regional Climate Center,wrcc@dri.edu